Time;durP1;ratioP1;P1;durP2;ratioP2;P2;SDS_P1;SDS_P2;PMS_P1;PMS_P2;Temp;Humidity;BMP_temperature;BMP_pressure;BME280_temperature;BME280_humidity;BME280_pressure;Samples;Min_cycle;Max_cycle;Signal;HPM_P1;HPM_P2
2022/09/15 00:02:49;;;;;;;1104.13;996.70;;;;;;;;;;10331115;28;20037;-75
2022/09/15 00:07:49;;;;;;;1111.03;999.90;;;;;;;;;;10315266;28;20450;-76
2022/09/15 00:12:49;;;;;;;1091.05;985.38;;;;;;;;;;10314310;28;20037;-74
2022/09/15 00:17:50;;;;;;;1103.20;996.00;;;;;;;;;;10314991;28;20393;-76
2022/09/15 00:22:51;;;;;;;1092.20;986.38;;;;;;;;;;10314501;28;20054;-78
2022/09/15 00:27:51;;;;;;;1093.40;987.92;;;;;;;;;;10314507;28;20014;-74
2022/09/15 00:32:51;;;;;;;1101.45;995.10;;;;;;;;;;10318444;28;20026;-74
2022/09/15 00:37:51;;;;;;;1095.82;989.72;;;;;;;;;;10313257;28;20021;-74
2022/09/15 00:42:51;;;;;;;1099.20;993.05;;;;;;;;;;10313644;28;20109;-74
2022/09/15 00:47:52;;;;;;;1090.65;985.75;;;;;;;;;;10313669;28;20440;-74
2022/09/15 00:52:55;;;;;;;1113.10;999.90;;;;;;;;;;10312605;28;20037;-74
2022/09/15 00:57:59;;;;;;;1101.95;995.75;;;;;;;;;;10313435;28;20265;-74
2022/09/15 01:03:00;;;;;;;843.25;761.53;;;;;;;;;;10312258;28;20125;-77
2022/09/15 01:08:04;;;;;;;1084.10;979.35;;;;;;;;;;10313092;28;20014;-74
2022/09/15 01:13:06;;;;;;;331.58;299.50;;;;;;;;;;10312032;28;20077;-81
2022/09/15 01:18:15;;;;;;;8.10;3.03;;;;;;;;;;10312556;28;20029;-79
2022/09/15 01:23:15;;;;;;;5.07;2.92;;;;;;;;;;10307997;28;20093;-82
2022/09/15 01:28:29;;;;;;;1070.43;975.33;;;;;;;;;;10311680;28;20105;-74
2022/09/15 01:33:38;;;;;;;1069.15;978.00;;;;;;;;;;10310614;28;20030;-73
2022/09/15 01:38:38;;;;;;;1092.65;995.92;;;;;;;;;;10311120;28;20369;-74
2022/09/15 01:43:43;;;;;;;1071.40;976.67;;;;;;;;;;10327439;28;20034;-77
2022/09/15 01:48:44;;;;;;;1078.38;985.03;;;;;;;;;;10310914;28;20018;-74
2022/09/15 01:53:46;;;;;;;1060.88;963.55;;;;;;;;;;10310727;28;20109;-72
2022/09/15 01:58:48;;;;;;;1078.03;978.13;;;;;;;;;;10311327;28;20026;-78
2022/09/15 02:03:54;;;;;;;1082.13;980.95;;;;;;;;;;10310987;28;20018;-73
2022/09/15 02:09:01;;;;;;;1064.68;965.47;;;;;;;;;;10310545;28;20019;-78
2022/09/15 02:14:16;;;;;;;1069.20;968.85;;;;;;;;;;10310222;28;20076;-74
2022/09/15 02:19:16;;;;;;;1087.07;983.65;;;;;;;;;;10292707;28;20034;-74
2022/09/15 02:24:18;;;;;;;1069.10;967.70;;;;;;;;;;10284634;28;20088;-74
2022/09/15 02:29:20;;;;;;;1037.85;938.28;;;;;;;;;;10271222;28;20027;-74
2022/09/15 02:34:23;;;;;;;1047.90;948.03;;;;;;;;;;10285642;28;20023;-76
2022/09/15 02:39:26;;;;;;;1062.72;963.95;;;;;;;;;;10319397;28;20121;-73
2022/09/15 02:44:29;;;;;;;1050.15;953.83;;;;;;;;;;10327417;28;20026;-78
2022/09/15 02:49:29;;;;;;;1049.55;950.58;;;;;;;;;;10325184;28;20026;-74
2022/09/15 02:54:30;;;;;;;1057.93;960.08;;;;;;;;;;10308556;28;20045;-79
2022/09/15 03:00:11;;;;;;;1032.22;936.10;;;;;;;;;;10325875;28;20113;-74
2022/09/15 03:04:50;;;;;;;1037.15;937.05;;;;;;;;;;10325720;28;20030;-74
2022/09/15 03:09:50;;;;;;;1050.95;948.78;;;;;;;;;;10307529;28;20037;-74
2022/09/15 03:14:51;;;;;;;1057.05;955.00;;;;;;;;;;10325783;28;20080;-76
2022/09/15 03:19:51;;;;;;;1043.57;943.57;;;;;;;;;;10306995;28;20408;-73
2022/09/15 03:24:51;;;;;;;1028.97;928.38;;;;;;;;;;10307327;28;20453;-75
2022/09/15 03:29:52;;;;;;;1026.17;926.23;;;;;;;;;;10307404;28;20026;-75
2022/09/15 03:34:52;;;;;;;1031.27;933.83;;;;;;;;;;10306798;28;20140;-77
2022/09/15 03:39:52;;;;;;;1037.85;938.00;;;;;;;;;;10306682;28;20145;-74
2022/09/15 03:44:53;;;;;;;1019.58;921.83;;;;;;;;;;10324636;28;20018;-74
2022/09/15 03:49:54;;;;;;;1045.53;945.15;;;;;;;;;;10306958;28;20022;-75
2022/09/15 03:54:54;;;;;;;1029.10;931.25;;;;;;;;;;10306776;28;20464;-74
2022/09/15 03:59:54;;;;;;;835.90;768.87;;;;;;;;;;10282350;28;20022;-73
2022/09/15 04:04:55;;;;;;;61.40;55.13;;;;;;;;;;10323634;28;20023;-77
2022/09/15 04:09:55;;;;;;;81.25;76.68;;;;;;;;;;10306107;28;20112;-73
2022/09/15 04:14:55;;;;;;;12.40;3.83;;;;;;;;;;10315787;28;20039;-74
2022/09/15 04:19:56;;;;;;;12.25;7.05;;;;;;;;;;10291359;28;20488;-76
2022/09/15 04:24:56;;;;;;;11.82;4.20;;;;;;;;;;10284975;28;20058;-73
2022/09/15 04:29:57;;;;;;;11.75;4.32;;;;;;;;;;10282848;28;20057;-74
2022/09/15 04:34:57;;;;;;;5.27;3.80;;;;;;;;;;10281617;28;20026;-74
2022/09/15 04:39:57;;;;;;;11.52;4.30;;;;;;;;;;10280412;28;20635;-78
2022/09/15 04:44:58;;;;;;;19.77;5.18;;;;;;;;;;10281716;28;20110;-78
2022/09/15 04:49:58;;;;;;;13.02;4.75;;;;;;;;;;10289307;28;20023;-75
2022/09/15 04:54:58;;;;;;;19.15;6.32;;;;;;;;;;10288824;28;20081;-79
2022/09/15 04:59:58;;;;;;;11.60;5.80;;;;;;;;;;10287953;28;20019;-74
2022/09/15 05:04:59;;;;;;;13.47;5.27;;;;;;;;;;10288961;28;20030;-74
2022/09/15 05:09:59;;;;;;;13.95;5.47;;;;;;;;;;10286308;28;20026;-74
2022/09/15 05:14:59;;;;;;;20.13;5.82;;;;;;;;;;10288177;28;20027;-73
2022/09/15 05:20:00;;;;;;;13.90;5.60;;;;;;;;;;10286938;28;20049;-76
2022/09/15 05:25:00;;;;;;;23.57;5.63;;;;;;;;;;10285675;28;20562;-77
2022/09/15 05:30:00;;;;;;;17.50;5.10;;;;;;;;;;10267613;28;20520;-74
2022/09/15 05:35:01;;;;;;;11.27;4.45;;;;;;;;;;10282136;28;20029;-74
2022/09/15 05:40:01;;;;;;;11.90;4.25;;;;;;;;;;10287622;28;20030;-74
2022/09/15 05:45:01;;;;;;;6.13;2.65;;;;;;;;;;10284599;28;20540;-73
2022/09/15 05:50:01;;;;;;;10.60;2.70;;;;;;;;;;10291690;28;20433;-75
2022/09/15 05:55:02;;;;;;;8.95;3.42;;;;;;;;;;10283241;28;20023;-74
2022/09/15 06:00:02;;;;;;;15.93;3.17;;;;;;;;;;10281719;28;20035;-75
2022/09/15 06:05:03;;;;;;;9.80;2.80;;;;;;;;;;10282922;28;20114;-74
2022/09/15 06:10:03;;;;;;;4.70;2.50;;;;;;;;;;10294041;28;20090;-74
2022/09/15 06:15:04;;;;;;;11.05;3.22;;;;;;;;;;10285564;28;20015;-74
2022/09/15 06:20:05;;;;;;;7.38;2.22;;;;;;;;;;10287443;28;20042;-75
2022/09/15 06:25:06;;;;;;;9.40;2.58;;;;;;;;;;10319743;28;20484;-74
2022/09/15 06:30:07;;;;;;;4.57;2.08;;;;;;;;;;10309188;28;20026;-75
2022/09/15 06:35:07;;;;;;;9.13;3.00;;;;;;;;;;10307927;28;20068;-75
2022/09/15 06:40:08;;;;;;;16.83;4.13;;;;;;;;;;10352020;22;20050;-73
2022/09/15 06:45:09;;;;;;;10.43;3.05;;;;;;;;;;10348324;28;20022;-73
2022/09/15 06:50:09;;;;;;;13.27;3.60;;;;;;;;;;10348483;28;20372;-73
2022/09/15 06:55:09;;;;;;;13.23;3.40;;;;;;;;;;10347571;28;20503;-73
2022/09/15 07:00:10;;;;;;;9.73;2.83;;;;;;;;;;10365918;28;20026;-77
2022/09/15 07:05:10;;;;;;;10.40;2.22;;;;;;;;;;10347816;28;20029;-77
2022/09/15 07:10:11;;;;;;;13.30;3.33;;;;;;;;;;10348069;28;20032;-73
2022/09/15 07:15:11;;;;;;;4.30;2.37;;;;;;;;;;10347652;28;20040;-73
2022/09/15 07:20:12;;;;;;;9.20;3.08;;;;;;;;;;10348271;28;20026;-73
2022/09/15 07:25:12;;;;;;;11.73;3.08;;;;;;;;;;10347373;28;20033;-73
2022/09/15 07:30:12;;;;;;;9.20;2.67;;;;;;;;;;10347544;28;20037;-73
2022/09/15 07:35:13;;;;;;;16.92;2.47;;;;;;;;;;10347056;28;20495;-78
2022/09/15 07:40:13;;;;;;;8.97;2.67;;;;;;;;;;10346956;28;20070;-75
2022/09/15 07:45:14;;;;;;;10.35;2.35;;;;;;;;;;10346668;28;20010;-77
2022/09/15 07:50:14;;;;;;;12.43;2.33;;;;;;;;;;10364900;28;20030;-74
2022/09/15 07:55:14;;;;;;;7.72;2.20;;;;;;;;;;10346238;28;20026;-76
2022/09/15 08:00:16;;;;;;;10.77;2.93;;;;;;;;;;10330434;28;20037;-74
2022/09/15 08:05:16;;;;;;;9.23;2.40;;;;;;;;;;10346136;28;20805;-73
2022/09/15 08:10:16;;;;;;;9.90;2.53;;;;;;;;;;10346710;28;20049;-74
2022/09/15 08:15:17;;;;;;;10.23;2.33;;;;;;;;;;10345558;28;20100;-77
2022/09/15 08:20:18;;;;;;;8.88;2.30;;;;;;;;;;10348022;28;20034;-74
2022/09/15 08:25:18;;;;;;;10.38;2.97;;;;;;;;;;10354069;28;20388;-77
2022/09/15 08:30:20;;;;;;;11.80;3.22;;;;;;;;;;10353941;28;20034;-77
2022/09/15 08:35:20;;;;;;;9.10;2.75;;;;;;;;;;10338330;28;20471;-78
2022/09/15 08:40:33;;;;;;;9.10;2.83;;;;;;;;;;10353678;28;20049;-76
2022/09/15 08:45:40;;;;;;;7.20;2.30;;;;;;;;;;10353275;28;20022;-74
2022/09/15 08:50:43;;;;;;;5.93;2.20;;;;;;;;;;10353668;28;20040;-75
2022/09/15 08:55:48;;;;;;;6.53;2.47;;;;;;;;;;10353558;28;20050;-75
2022/09/15 09:00:51;;;;;;;4.68;2.30;;;;;;;;;;10352247;28;20057;-74
2022/09/15 09:05:59;;;;;;;11.93;2.72;;;;;;;;;;10352713;28;20048;-74
2022/09/15 09:11:08;;;;;;;5.95;2.20;;;;;;;;;;10352504;28;20026;-74
2022/09/15 09:16:08;;;;;;;8.30;2.65;;;;;;;;;;10351956;28;20025;-74
2022/09/15 09:21:12;;;;;;;10.38;2.83;;;;;;;;;;10351653;28;20026;-74
2022/09/15 09:26:13;;;;;;;12.07;2.85;;;;;;;;;;10352014;28;20395;-74
2022/09/15 09:31:18;;;;;;;10.60;3.70;;;;;;;;;;10349955;28;20037;-73
2022/09/15 09:36:19;;;;;;;17.02;3.47;;;;;;;;;;10351665;28;20030;-75
2022/09/15 09:41:24;;;;;;;10.53;2.40;;;;;;;;;;10350336;28;20054;-77
2022/09/15 09:46:25;;;;;;;8.47;2.00;;;;;;;;;;10351234;28;20029;-75
2022/09/15 09:51:28;;;;;;;10.18;2.03;;;;;;;;;;10350202;28;20026;-76
2022/09/15 09:56:28;;;;;;;11.98;2.55;;;;;;;;;;10350492;28;20026;-75
2022/09/15 10:01:29;;;;;;;13.73;2.50;;;;;;;;;;10350017;28;20037;-75
2022/09/15 10:06:29;;;;;;;8.43;2.00;;;;;;;;;;10350080;28;20506;-74
2022/09/15 10:11:48;;;;;;;12.80;2.08;;;;;;;;;;10366810;28;20048;-74
2022/09/15 10:17:03;;;;;;;13.02;2.08;;;;;;;;;;10349542;28;20026;-75
2022/09/15 10:22:03;;;;;;;7.93;1.80;;;;;;;;;;10349898;28;20470;-75
2022/09/15 10:27:17;;;;;;;8.70;1.85;;;;;;;;;;10349473;28;20026;-75
2022/09/15 10:32:24;;;;;;;9.30;2.15;;;;;;;;;;10349210;28;20084;-78
2022/09/15 10:37:24;;;;;;;9.00;1.73;;;;;;;;;;10349137;28;20026;-75
2022/09/15 10:42:47;;;;;;;7.70;1.58;;;;;;;;;;10348895;28;20054;-75
2022/09/15 10:48:06;;;;;;;9.88;1.70;;;;;;;;;;10366142;28;20068;-78
2022/09/15 10:53:12;;;;;;;5.70;1.88;;;;;;;;;;10348107;28;20030;-74
2022/09/15 10:58:31;;;;;;;6.75;2.33;;;;;;;;;;10348613;28;20468;-74
2022/09/15 11:03:38;;;;;;;9.55;2.67;;;;;;;;;;10347143;28;20164;-75
2022/09/15 11:08:38;;;;;;;9.63;2.22;;;;;;;;;;10347997;28;20046;-78
2022/09/15 11:13:58;;;;;;;10.32;2.33;;;;;;;;;;10347931;28;20124;-75
2022/09/15 11:19:07;;;;;;;13.02;2.38;;;;;;;;;;10348257;28;20064;-73
2022/09/15 11:24:26;;;;;;;9.77;1.98;;;;;;;;;;10347199;28;20148;-75
2022/09/15 11:29:26;;;;;;;7.68;2.25;;;;;;;;;;10347415;28;20400;-74
2022/09/15 11:34:30;;;;;;;12.07;2.38;;;;;;;;;;10333230;28;20308;-75
2022/09/15 11:39:52;;;;;;;10.98;2.40;;;;;;;;;;10364192;28;20050;-75
2022/09/15 11:44:54;;;;;;;11.15;2.97;;;;;;;;;;10346455;28;20084;-75
2022/09/15 11:49:56;;;;;;;6.28;1.58;;;;;;;;;;10346566;28;20018;-74
2022/09/15 11:55:04;;;;;;;11.65;1.83;;;;;;;;;;10345477;28;20028;-75
2022/09/15 12:00:07;;;;;;;13.27;2.08;;;;;;;;;;10346235;28;20109;-75
2022/09/15 12:05:16;;;;;;;7.22;1.73;;;;;;;;;;10332085;28;20014;-74
2022/09/15 12:10:22;;;;;;;12.15;1.70;;;;;;;;;;10346599;28;20492;-75
2022/09/15 12:15:26;;;;;;;9.45;2.28;;;;;;;;;;10345753;28;20121;-79
2022/09/15 12:20:36;;;;;;;12.85;2.15;;;;;;;;;;10345910;28;20032;-75
2022/09/15 12:25:42;;;;;;;5.57;1.48;;;;;;;;;;10345701;28;20409;-79
2022/09/15 12:30:42;;;;;;;10.98;1.70;;;;;;;;;;10345879;28;20022;-74
2022/09/15 12:35:43;;;;;;;13.15;1.73;;;;;;;;;;10343213;28;20462;-73
2022/09/15 12:40:43;;;;;;;19.47;4.17;;;;;;;;;;10317943;28;20623;-74
2022/09/15 12:45:53;;;;;;;6.45;1.52;;;;;;;;;;10345232;28;20125;-77
2022/09/15 12:51:09;;;;;;;22.75;2.80;;;;;;;;;;10345276;28;20014;-77
2022/09/15 12:56:20;;;;;;;3.83;1.63;;;;;;;;;;10363251;28;20026;-77
2022/09/15 13:01:23;;;;;;;8.20;2.30;;;;;;;;;;10346195;28;20026;-73
2022/09/15 13:06:25;;;;;;;12.60;1.67;;;;;;;;;;10347052;28;20464;-75
2022/09/15 13:11:38;;;;;;;9.70;3.17;;;;;;;;;;10370068;28;20479;-80
2022/09/15 13:16:39;;;;;;;6.97;1.58;;;;;;;;;;10351905;28;20563;-74
2022/09/15 13:21:41;;;;;;;17.50;2.03;;;;;;;;;;10352540;28;20132;-74
2022/09/15 13:26:43;;;;;;;13.13;2.00;;;;;;;;;;10352040;28;20022;-74
2022/09/15 13:31:54;;;;;;;16.75;2.25;;;;;;;;;;10369471;28;20018;-74
2022/09/15 13:37:06;;;;;;;11.15;1.80;;;;;;;;;;10351092;28;20029;-78
2022/09/15 13:42:07;;;;;;;11.20;2.30;;;;;;;;;;10350620;28;20045;-74
2022/09/15 13:47:26;;;;;;;9.88;1.60;;;;;;;;;;10350235;28;20026;-77
2022/09/15 13:52:38;;;;;;;10.73;1.63;;;;;;;;;;10358113;28;20056;-75
2022/09/15 13:57:40;;;;;;;6.32;1.02;;;;;;;;;;10357189;28;20041;-78
2022/09/15 14:02:42;;;;;;;8.02;1.27;;;;;;;;;;10339312;28;20088;-74
2022/09/15 14:07:43;;;;;;;7.55;1.60;;;;;;;;;;10340075;28;20030;-75
2022/09/15 14:12:43;;;;;;;7.47;1.30;;;;;;;;;;10348797;28;20031;-74
2022/09/15 14:17:44;;;;;;;3.92;1.13;;;;;;;;;;10341515;28;20018;-75
2022/09/15 14:22:47;;;;;;;18.02;1.90;;;;;;;;;;10337118;28;20022;-74
2022/09/15 14:27:49;;;;;;;9.23;1.30;;;;;;;;;;10333666;28;20030;-75
2022/09/15 14:32:51;;;;;;;9.25;1.60;;;;;;;;;;10339172;28;20656;-75
2022/09/15 14:37:54;;;;;;;13.25;1.40;;;;;;;;;;10337095;28;20029;-75
2022/09/15 14:42:55;;;;;;;12.75;1.95;;;;;;;;;;10332086;28;20045;-74
2022/09/15 14:48:00;;;;;;;14.15;2.33;;;;;;;;;;10333985;28;20022;-73
2022/09/15 14:53:05;;;;;;;13.13;2.25;;;;;;;;;;10309815;28;20026;-74
2022/09/15 14:58:10;;;;;;;14.25;3.30;;;;;;;;;;10350654;28;20021;-77
2022/09/15 15:03:31;;;;;;;5.50;1.73;;;;;;;;;;10330786;28;20097;-75
2022/09/15 15:08:35;;;;;;;13.15;2.45;;;;;;;;;;10336030;28;20029;-75
2022/09/15 15:13:36;;;;;;;11.85;2.92;;;;;;;;;;10332977;28;20033;-74
2022/09/15 15:18:38;;;;;;;11.15;2.00;;;;;;;;;;10354497;28;20416;-74
2022/09/15 15:23:43;;;;;;;6.60;1.38;;;;;;;;;;10335499;28;20095;-74
2022/09/15 15:28:43;;;;;;;16.60;3.58;;;;;;;;;;10334330;28;20472;-74
2022/09/15 15:33:55;;;;;;;14.73;2.17;;;;;;;;;;10349100;28;20030;-75
2022/09/15 15:38:58;;;;;;;9.77;2.35;;;;;;;;;;10335706;28;20054;-74
2022/09/15 15:44:08;;;;;;;21.80;2.30;;;;;;;;;;10304367;28;20092;-73
2022/09/15 15:49:09;;;;;;;10.65;2.50;;;;;;;;;;10352469;28;20101;-75
2022/09/15 15:54:10;;;;;;;18.80;3.22;;;;;;;;;;10331320;28;20022;-75
2022/09/15 15:59:14;;;;;;;19.10;2.90;;;;;;;;;;10328843;28;20026;-79
2022/09/15 16:04:14;;;;;;;12.63;1.90;;;;;;;;;;10327946;28;20030;-74
2022/09/15 16:09:16;;;;;;;21.50;3.47;;;;;;;;;;10327442;28;20030;-77
2022/09/15 16:14:16;;;;;;;25.13;3.55;;;;;;;;;;10328827;28;20245;-77
2022/09/15 16:19:16;;;;;;;11.43;2.65;;;;;;;;;;10327305;28;20276;-73
2022/09/15 16:24:16;;;;;;;14.60;2.42;;;;;;;;;;10332225;28;20117;-75
2022/09/15 16:29:16;;;;;;;13.40;2.78;;;;;;;;;;10324642;28;20523;-72
2022/09/15 16:34:17;;;;;;;17.13;4.03;;;;;;;;;;10331765;28;20022;-74
2022/09/15 16:39:17;;;;;;;13.45;2.58;;;;;;;;;;10361605;23;20069;-73
2022/09/15 16:44:18;;;;;;;21.13;3.63;;;;;;;;;;10381674;28;20040;-76
2022/09/15 16:49:18;;;;;;;17.48;3.25;;;;;;;;;;10384379;28;20075;-75
2022/09/15 16:54:19;;;;;;;20.38;3.00;;;;;;;;;;10384306;28;20033;-78
2022/09/15 16:59:19;;;;;;;13.80;3.80;;;;;;;;;;10394876;28;20491;-73
2022/09/15 17:04:19;;;;;;;33.13;5.53;;;;;;;;;;10379712;28;20024;-74
2022/09/15 17:09:20;;;;;;;19.30;4.60;;;;;;;;;;10378986;28;20018;-75
2022/09/15 17:14:20;;;;;;;15.85;4.13;;;;;;;;;;10395873;28;20022;-72
2022/09/15 17:19:20;;;;;;;24.97;4.93;;;;;;;;;;10369772;28;20111;-73
2022/09/15 17:24:20;;;;;;;26.38;6.15;;;;;;;;;;10380185;28;20120;-76
2022/09/15 17:29:21;;;;;;;29.60;4.85;;;;;;;;;;10376645;28;20028;-73
2022/09/15 17:34:21;;;;;;;22.52;5.30;;;;;;;;;;10384221;23;20054;-73
2022/09/15 17:39:21;;;;;;;16.50;4.70;;;;;;;;;;10345506;28;20113;-79
2022/09/15 17:44:22;;;;;;;27.20;6.90;;;;;;;;;;10360204;28;20038;-72
2022/09/15 17:49:22;;;;;;;25.98;5.93;;;;;;;;;;10362624;28;20017;-73
2022/09/15 17:54:22;;;;;;;21.98;6.18;;;;;;;;;;10342825;28;20092;-78
2022/09/15 17:59:23;;;;;;;25.50;6.47;;;;;;;;;;10340201;28;20104;-73
2022/09/15 18:04:23;;;;;;;25.10;6.80;;;;;;;;;;10359913;28;20022;-75
2022/09/15 18:09:24;;;;;;;26.80;6.28;;;;;;;;;;10357437;28;20564;-75
2022/09/15 18:14:24;;;;;;;22.98;6.88;;;;;;;;;;10346682;28;20345;-77
2022/09/15 18:19:24;;;;;;;19.85;6.45;;;;;;;;;;10347547;28;20049;-74
2022/09/15 18:24:24;;;;;;;29.02;6.88;;;;;;;;;;10344347;28;20030;-78
2022/09/15 18:29:25;;;;;;;20.35;6.35;;;;;;;;;;10347489;28;20033;-77
2022/09/15 18:34:25;;;;;;;31.30;8.40;;;;;;;;;;10356768;28;20058;-73
2022/09/15 18:39:26;;;;;;;28.33;5.93;;;;;;;;;;10351355;28;20030;-79
2022/09/15 18:44:26;;;;;;;10.33;3.57;;;;;;;;;;10345570;28;20136;-74
2022/09/15 18:49:26;;;;;;;19.27;4.82;;;;;;;;;;10357125;28;20026;-73
2022/09/15 18:54:27;;;;;;;13.57;4.28;;;;;;;;;;10349361;28;20033;-73
2022/09/15 18:59:27;;;;;;;23.80;4.10;;;;;;;;;;10343377;28;20075;-73
2022/09/15 19:04:27;;;;;;;19.67;3.70;;;;;;;;;;10344372;28;20040;-72
2022/09/15 19:09:27;;;;;;;11.50;2.85;;;;;;;;;;10340277;28;20179;-72
2022/09/15 19:14:28;;;;;;;10.18;2.83;;;;;;;;;;10354233;28;20381;-73
2022/09/15 19:19:31;;;;;;;14.23;2.55;;;;;;;;;;10348237;28;20026;-73
2022/09/15 19:24:32;;;;;;;10.88;2.03;;;;;;;;;;10346309;28;20026;-73
2022/09/15 19:29:33;;;;;;;13.48;1.83;;;;;;;;;;10342639;28;20022;-73
2022/09/15 19:34:34;;;;;;;15.02;2.40;;;;;;;;;;10337188;28;20817;-74
2022/09/15 19:39:34;;;;;;;9.30;1.60;;;;;;;;;;10335724;28;20026;-75
2022/09/15 19:44:34;;;;;;;8.73;1.75;;;;;;;;;;10341326;28;20474;-74
2022/09/15 19:49:35;;;;;;;14.10;2.28;;;;;;;;;;10342112;28;20553;-77
2022/09/15 19:54:35;;;;;;;7.53;2.20;;;;;;;;;;10346702;28;20033;-77
2022/09/15 19:59:36;;;;;;;8.30;3.45;;;;;;;;;;10351311;28;20506;-76
2022/09/15 20:04:39;;;;;;;10.57;2.45;;;;;;;;;;10356924;28;20025;-74
2022/09/15 20:09:39;;;;;;;11.55;2.22;;;;;;;;;;10360840;28;20400;-80
2022/09/15 20:14:40;;;;;;;15.82;2.42;;;;;;;;;;10362679;28;20025;-74
2022/09/15 20:19:40;;;;;;;11.35;1.73;;;;;;;;;;10371642;28;20527;-77
2022/09/15 20:24:40;;;;;;;12.82;2.80;;;;;;;;;;10370893;28;20018;-73
2022/09/15 20:29:41;;;;;;;10.07;1.88;;;;;;;;;;10354182;28;20469;-74
2022/09/15 20:34:41;;;;;;;8.10;2.22;;;;;;;;;;10354281;28;20050;-77
2022/09/15 20:39:42;;;;;;;10.93;1.90;;;;;;;;;;10370721;28;20022;-73
2022/09/15 20:44:42;;;;;;;14.63;2.15;;;;;;;;;;10354136;28;20022;-75
2022/09/15 20:49:43;;;;;;;9.27;2.60;;;;;;;;;;10353625;28;20024;-75
2022/09/15 20:54:43;;;;;;;6.38;2.35;;;;;;;;;;10354944;28;20083;-74
2022/09/15 20:59:44;;;;;;;12.93;2.63;;;;;;;;;;10353131;28;20022;-80
2022/09/15 21:04:44;;;;;;;12.82;2.50;;;;;;;;;;10369532;28;20033;-74
2022/09/15 21:09:44;;;;;;;14.07;3.50;;;;;;;;;;10369308;28;20619;-78
2022/09/15 21:14:44;;;;;;;14.10;3.25;;;;;;;;;;10352556;28;20022;-79
2022/09/15 21:19:45;;;;;;;7.57;2.53;;;;;;;;;;10370404;28;20026;-74
2022/09/15 21:24:45;;;;;;;15.35;2.90;;;;;;;;;;10368238;28;20427;-74
2022/09/15 21:29:47;;;;;;;9.65;2.88;;;;;;;;;;10369367;28;20026;-78
2022/09/15 21:34:47;;;;;;;12.50;2.95;;;;;;;;;;10368657;28;20092;-80
2022/09/15 21:39:47;;;;;;;14.90;3.45;;;;;;;;;;10352050;28;20116;-77
2022/09/15 21:44:47;;;;;;;12.27;3.00;;;;;;;;;;10367152;28;20018;-77
2022/09/15 21:49:47;;;;;;;11.85;3.22;;;;;;;;;;10369357;28;20026;-75
2022/09/15 21:54:48;;;;;;;14.23;2.92;;;;;;;;;;10353371;28;20022;-78
2022/09/15 21:59:48;;;;;;;10.98;3.38;;;;;;;;;;10367588;28;20080;-80
2022/09/15 22:04:48;;;;;;;7.38;2.88;;;;;;;;;;10366389;28;20503;-73
2022/09/15 22:09:48;;;;;;;9.70;2.60;;;;;;;;;;10366299;28;20568;-73
2022/09/15 22:14:49;;;;;;;12.90;2.38;;;;;;;;;;10367572;28;20017;-72
2022/09/15 22:19:49;;;;;;;8.05;2.55;;;;;;;;;;10350676;28;20018;-74
2022/09/15 22:24:49;;;;;;;11.15;3.13;;;;;;;;;;10367749;28;20450;-74
2022/09/15 22:29:49;;;;;;;15.88;2.55;;;;;;;;;;10349798;28;20022;-73
2022/09/15 22:34:50;;;;;;;13.35;3.70;;;;;;;;;;10366876;28;20062;-74
2022/09/15 22:39:50;;;;;;;11.55;2.13;;;;;;;;;;10365404;28;20018;-74
2022/09/15 22:44:50;;;;;;;11.60;2.27;;;;;;;;;;10348627;28;20560;-74
2022/09/15 22:49:50;;;;;;;9.35;2.30;;;;;;;;;;10366961;28;20105;-77
2022/09/15 22:54:51;;;;;;;7.20;2.33;;;;;;;;;;10364492;28;20026;-73
2022/09/15 22:59:51;;;;;;;7.50;2.20;;;;;;;;;;10366468;28;20018;-73
2022/09/15 23:04:53;;;;;;;8.95;2.35;;;;;;;;;;10348556;28;20476;-78
2022/09/15 23:09:53;;;;;;;12.45;2.15;;;;;;;;;;10366968;28;20091;-73
2022/09/15 23:14:53;;;;;;;13.53;2.77;;;;;;;;;;10347932;28;20083;-74
2022/09/15 23:19:54;;;;;;;3.58;1.67;;;;;;;;;;10347370;28;20079;-74
2022/09/15 23:24:54;;;;;;;8.23;2.20;;;;;;;;;;10363791;28;20026;-73
2022/09/15 23:29:54;;;;;;;8.50;2.20;;;;;;;;;;10364291;28;20646;-77
2022/09/15 23:34:55;;;;;;;8.10;2.20;;;;;;;;;;10363195;28;20054;-73
2022/09/15 23:39:55;;;;;;;8.80;2.92;;;;;;;;;;10347478;28;20024;-74
2022/09/15 23:44:55;;;;;;;9.53;2.37;;;;;;;;;;10346711;28;20029;-72
2022/09/15 23:49:55;;;;;;;10.93;2.42;;;;;;;;;;10347040;28;20443;-76
2022/09/15 23:54:56;;;;;;;11.07;1.85;;;;;;;;;;10363442;28;20025;-79
2022/09/15 23:59:56;;;;;;;5.50;2.30;;;;;;;;;;10362297;28;20419;-73
